sensor_id;sensor_type;location;lat;lon;timestamp;P1;durP1;ratioP1;P2;durP2;ratioP2
59314;SDS011;46521;50.160;20.802;2022-11-20T00:07:53;60.37;;;31.80;;
59314;SDS011;46521;50.160;20.802;2022-11-20T00:17:54;63.20;;;32.30;;
59314;SDS011;46521;50.160;20.802;2022-11-20T00:27:56;63.65;;;33.30;;
59314;SDS011;46521;50.160;20.802;2022-11-20T00:37:57;67.07;;;33.80;;
59314;SDS011;46521;50.160;20.802;2022-11-20T00:47:59;62.05;;;34.00;;
59314;SDS011;46521;50.160;20.802;2022-11-20T00:58:00;65.60;;;32.30;;
59314;SDS011;46521;50.160;20.802;2022-11-20T01:08:02;63.15;;;34.80;;
59314;SDS011;46521;50.160;20.802;2022-11-20T01:18:03;61.55;;;34.15;;
59314;SDS011;46521;50.160;20.802;2022-11-20T01:28:05;66.80;;;36.25;;
59314;SDS011;46521;50.160;20.802;2022-11-20T01:38:07;60.30;;;33.30;;
59314;SDS011;46521;50.160;20.802;2022-11-20T01:48:09;66.50;;;35.00;;
59314;SDS011;46521;50.160;20.802;2022-11-20T01:58:12;64.45;;;32.15;;
59314;SDS011;46521;50.160;20.802;2022-11-20T02:08:14;64.85;;;32.70;;
59314;SDS011;46521;50.160;20.802;2022-11-20T02:18:17;60.00;;;33.30;;
59314;SDS011;46521;50.160;20.802;2022-11-20T02:28:20;60.45;;;31.00;;
59314;SDS011;46521;50.160;20.802;2022-11-20T02:38:23;54.43;;;32.13;;
59314;SDS011;46521;50.160;20.802;2022-11-20T02:48:24;58.00;;;30.55;;
59314;SDS011;46521;50.160;20.802;2022-11-20T02:58:26;62.40;;;32.70;;
59314;SDS011;46521;50.160;20.802;2022-11-20T03:08:27;63.20;;;32.90;;
59314;SDS011;46521;50.160;20.802;2022-11-20T03:18:29;59.50;;;31.90;;
59314;SDS011;46521;50.160;20.802;2022-11-20T03:28:30;55.60;;;30.80;;
59314;SDS011;46521;50.160;20.802;2022-11-20T03:38:32;60.87;;;31.77;;
59314;SDS011;46521;50.160;20.802;2022-11-20T03:48:34;63.00;;;32.80;;
59314;SDS011;46521;50.160;20.802;2022-11-20T03:58:36;60.70;;;33.60;;
59314;SDS011;46521;50.160;20.802;2022-11-20T04:18:44;56.30;;;32.20;;
59314;SDS011;46521;50.160;20.802;2022-11-20T04:28:46;64.40;;;32.30;;
59314;SDS011;46521;50.160;20.802;2022-11-20T04:38:54;60.90;;;33.70;;
59314;SDS011;46521;50.160;20.802;2022-11-20T04:48:57;58.80;;;33.00;;
59314;SDS011;46521;50.160;20.802;2022-11-20T04:59:00;65.70;;;34.10;;
59314;SDS011;46521;50.160;20.802;2022-11-20T05:09:02;61.35;;;32.80;;
59314;SDS011;46521;50.160;20.802;2022-11-20T05:19:04;64.57;;;33.57;;
59314;SDS011;46521;50.160;20.802;2022-11-20T05:29:05;65.60;;;32.30;;
59314;SDS011;46521;50.160;20.802;2022-11-20T05:39:07;58.70;;;31.90;;
59314;SDS011;46521;50.160;20.802;2022-11-20T05:49:08;66.03;;;33.77;;
59314;SDS011;46521;50.160;20.802;2022-11-20T05:59:09;63.20;;;34.35;;
59314;SDS011;46521;50.160;20.802;2022-11-20T06:09:11;59.65;;;34.40;;
59314;SDS011;46521;50.160;20.802;2022-11-20T06:19:12;58.10;;;35.50;;
59314;SDS011;46521;50.160;20.802;2022-11-20T06:29:14;65.35;;;34.15;;
59314;SDS011;46521;50.160;20.802;2022-11-20T06:39:16;63.80;;;33.50;;
59314;SDS011;46521;50.160;20.802;2022-11-20T06:49:17;63.63;;;34.73;;
59314;SDS011;46521;50.160;20.802;2022-11-20T06:59:18;66.15;;;36.05;;
59314;SDS011;46521;50.160;20.802;2022-11-20T07:09:20;68.10;;;40.03;;
59314;SDS011;46521;50.160;20.802;2022-11-20T07:19:21;59.95;;;34.05;;
59314;SDS011;46521;50.160;20.802;2022-11-20T07:29:23;62.00;;;33.65;;
59314;SDS011;46521;50.160;20.802;2022-11-20T07:39:24;68.90;;;37.60;;
59314;SDS011;46521;50.160;20.802;2022-11-20T07:49:26;62.77;;;35.73;;
59314;SDS011;46521;50.160;20.802;2022-11-20T07:59:27;64.70;;;37.10;;
59314;SDS011;46521;50.160;20.802;2022-11-20T08:09:28;93.55;;;52.65;;
59314;SDS011;46521;50.160;20.802;2022-11-20T08:19:30;60.05;;;33.75;;
59314;SDS011;46521;50.160;20.802;2022-11-20T08:29:31;62.50;;;34.05;;
59314;SDS011;46521;50.160;20.802;2022-11-20T08:39:33;70.80;;;38.30;;
59314;SDS011;46521;50.160;20.802;2022-11-20T08:49:34;75.10;;;42.07;;
59314;SDS011;46521;50.160;20.802;2022-11-20T08:59:35;68.83;;;37.97;;
59314;SDS011;46521;50.160;20.802;2022-11-20T09:09:37;57.15;;;32.90;;
59314;SDS011;46521;50.160;20.802;2022-11-20T09:19:38;85.35;;;53.45;;
59314;SDS011;46521;50.160;20.802;2022-11-20T09:29:41;81.95;;;46.10;;
59314;SDS011;46521;50.160;20.802;2022-11-20T09:39:42;85.30;;;44.90;;
59314;SDS011;46521;50.160;20.802;2022-11-20T09:50:02;80.40;;;45.60;;
59314;SDS011;46521;50.160;20.802;2022-11-20T10:00:25;76.40;;;41.10;;
59314;SDS011;46521;50.160;20.802;2022-11-20T10:10:31;104.95;;;51.70;;
59314;SDS011;46521;50.160;20.802;2022-11-20T10:30:44;77.15;;;40.60;;
59314;SDS011;46521;50.160;20.802;2022-11-20T10:40:52;70.85;;;42.00;;
59314;SDS011;46521;50.160;20.802;2022-11-20T11:01:38;74.40;;;40.90;;
59314;SDS011;46521;50.160;20.802;2022-11-20T11:11:42;76.15;;;42.90;;
59314;SDS011;46521;50.160;20.802;2022-11-20T11:21:45;80.40;;;44.20;;
59314;SDS011;46521;50.160;20.802;2022-11-20T11:31:48;80.80;;;44.10;;
59314;SDS011;46521;50.160;20.802;2022-11-20T11:41:50;84.20;;;44.50;;
59314;SDS011;46521;50.160;20.802;2022-11-20T11:52:03;83.80;;;46.70;;
59314;SDS011;46521;50.160;20.802;2022-11-20T12:02:11;87.05;;;48.00;;
59314;SDS011;46521;50.160;20.802;2022-11-20T12:12:34;85.70;;;48.50;;
59314;SDS011;46521;50.160;20.802;2022-11-20T12:22:50;88.10;;;48.10;;
59314;SDS011;46521;50.160;20.802;2022-11-20T12:33:20;89.50;;;47.40;;
59314;SDS011;46521;50.160;20.802;2022-11-20T12:44:12;96.25;;;47.70;;
59314;SDS011;46521;50.160;20.802;2022-11-20T12:55:04;79.95;;;45.20;;
59314;SDS011;46521;50.160;20.802;2022-11-20T13:25:46;109.25;;;61.75;;
59314;SDS011;46521;50.160;20.802;2022-11-20T13:36:03;104.20;;;56.00;;
59314;SDS011;46521;50.160;20.802;2022-11-20T13:46:07;101.20;;;52.80;;
59314;SDS011;46521;50.160;20.802;2022-11-20T13:56:13;107.60;;;55.10;;
59314;SDS011;46521;50.160;20.802;2022-11-20T14:06:42;101.05;;;51.05;;
59314;SDS011;46521;50.160;20.802;2022-11-20T14:16:46;117.20;;;61.10;;
59314;SDS011;46521;50.160;20.802;2022-11-20T14:26:49;115.20;;;59.30;;
59314;SDS011;46521;50.160;20.802;2022-11-20T14:36:53;96.50;;;54.10;;
59314;SDS011;46521;50.160;20.802;2022-11-20T14:47:01;112.80;;;54.90;;
59314;SDS011;46521;50.160;20.802;2022-11-20T14:57:05;104.95;;;55.50;;
59314;SDS011;46521;50.160;20.802;2022-11-20T15:07:06;97.10;;;50.70;;
59314;SDS011;46521;50.160;20.802;2022-11-20T15:17:08;130.43;;;66.63;;
59314;SDS011;46521;50.160;20.802;2022-11-20T15:27:12;128.80;;;66.65;;
59314;SDS011;46521;50.160;20.802;2022-11-20T15:37:14;94.20;;;51.10;;
59314;SDS011;46521;50.160;20.802;2022-11-20T15:47:15;87.10;;;46.75;;
59314;SDS011;46521;50.160;20.802;2022-11-20T15:57:18;100.50;;;51.00;;
59314;SDS011;46521;50.160;20.802;2022-11-20T16:07:19;109.00;;;57.50;;
59314;SDS011;46521;50.160;20.802;2022-11-20T16:17:21;103.00;;;55.85;;
59314;SDS011;46521;50.160;20.802;2022-11-20T16:27:42;111.70;;;59.90;;
59314;SDS011;46521;50.160;20.802;2022-11-20T16:37:43;126.80;;;64.60;;
59314;SDS011;46521;50.160;20.802;2022-11-20T16:47:45;112.05;;;61.00;;
59314;SDS011;46521;50.160;20.802;2022-11-20T16:57:46;100.25;;;54.50;;
59314;SDS011;46521;50.160;20.802;2022-11-20T17:07:48;116.20;;;62.80;;
59314;SDS011;46521;50.160;20.802;2022-11-20T17:17:49;116.05;;;61.65;;
59314;SDS011;46521;50.160;20.802;2022-11-20T17:27:53;134.40;;;72.90;;
59314;SDS011;46521;50.160;20.802;2022-11-20T17:37:54;106.75;;;58.10;;
59314;SDS011;46521;50.160;20.802;2022-11-20T17:47:56;133.85;;;70.95;;
59314;SDS011;46521;50.160;20.802;2022-11-20T17:57:57;135.85;;;76.95;;
59314;SDS011;46521;50.160;20.802;2022-11-20T18:08:02;138.60;;;73.25;;
59314;SDS011;46521;50.160;20.802;2022-11-20T18:18:04;138.35;;;70.30;;
59314;SDS011;46521;50.160;20.802;2022-11-20T18:28:05;129.60;;;70.40;;
59314;SDS011;46521;50.160;20.802;2022-11-20T18:38:06;118.25;;;67.15;;
59314;SDS011;46521;50.160;20.802;2022-11-20T18:48:08;119.70;;;64.60;;
59314;SDS011;46521;50.160;20.802;2022-11-20T18:58:09;127.00;;;65.00;;
59314;SDS011;46521;50.160;20.802;2022-11-20T19:08:11;133.70;;;68.00;;
59314;SDS011;46521;50.160;20.802;2022-11-20T19:18:12;121.85;;;60.15;;
59314;SDS011;46521;50.160;20.802;2022-11-20T19:28:15;105.70;;;57.60;;
59314;SDS011;46521;50.160;20.802;2022-11-20T19:38:16;96.60;;;51.67;;
59314;SDS011;46521;50.160;20.802;2022-11-20T19:48:18;99.20;;;54.35;;
59314;SDS011;46521;50.160;20.802;2022-11-20T19:58:19;102.50;;;53.25;;
59314;SDS011;46521;50.160;20.802;2022-11-20T20:08:21;105.50;;;57.00;;
59314;SDS011;46521;50.160;20.802;2022-11-20T20:18:22;98.80;;;53.40;;
59314;SDS011;46521;50.160;20.802;2022-11-20T20:28:23;91.65;;;51.80;;
59314;SDS011;46521;50.160;20.802;2022-11-20T20:38:25;90.80;;;51.60;;
59314;SDS011;46521;50.160;20.802;2022-11-20T20:48:27;105.25;;;56.00;;
59314;SDS011;46521;50.160;20.802;2022-11-20T20:58:28;114.05;;;63.00;;
59314;SDS011;46521;50.160;20.802;2022-11-20T21:08:30;114.57;;;64.80;;
59314;SDS011;46521;50.160;20.802;2022-11-20T21:18:32;106.05;;;57.30;;
59314;SDS011;46521;50.160;20.802;2022-11-20T21:28:34;99.00;;;57.53;;
59314;SDS011;46521;50.160;20.802;2022-11-20T21:38:37;119.90;;;65.50;;
59314;SDS011;46521;50.160;20.802;2022-11-20T21:48:39;95.70;;;53.75;;
59314;SDS011;46521;50.160;20.802;2022-11-20T21:58:42;101.00;;;57.00;;
59314;SDS011;46521;50.160;20.802;2022-11-20T22:08:45;95.25;;;52.30;;
59314;SDS011;46521;50.160;20.802;2022-11-20T22:18:48;101.73;;;53.07;;
59314;SDS011;46521;50.160;20.802;2022-11-20T22:28:51;100.20;;;58.47;;
59314;SDS011;46521;50.160;20.802;2022-11-20T22:38:54;105.15;;;57.30;;
59314;SDS011;46521;50.160;20.802;2022-11-20T22:49:00;135.80;;;67.05;;
59314;SDS011;46521;50.160;20.802;2022-11-20T22:59:04;119.10;;;62.45;;
59314;SDS011;46521;50.160;20.802;2022-11-20T23:09:06;112.10;;;61.30;;
59314;SDS011;46521;50.160;20.802;2022-11-20T23:19:10;97.60;;;54.57;;
59314;SDS011;46521;50.160;20.802;2022-11-20T23:29:13;90.80;;;49.20;;
59314;SDS011;46521;50.160;20.802;2022-11-20T23:39:15;90.37;;;51.17;;
59314;SDS011;46521;50.160;20.802;2022-11-20T23:59:47;113.30;;;61.90;;
